Airfield :







YOU CAN JOIN US ON...

 
LOGIN :

Register | Disclaimer

   EN    FR    IT 

 









Legend :    VFR   Marginal VFR   IFR   Intensive IFR   Very Intensive IFR
Visi :
Ceiling :
>= 8 km
>= 3000ft
5 to 8 km
1000 to 3000 ft
1500m to 5 km
500 to 1000 ft
800 to 1500m
200 to 500 ft
< 800m
< 200 ft
Symbols :   Thunderstorms  Fog  Heavy snow  Heavy precipitations  Wind > 20 kt







- Airport Elevation : 1825 ft


K8B0 - Steven A. Bean Municipal

CURRENT METAR :
  • 191815Z AUTO 25004KT 3SM HZ CLR 18/M03 A3030 RMK AO2

EXPIRED METARs :
  • 191755Z AUTO 25004KT 5SM HZ CLR 17/M02 A3031 RMK AO2
  • 191735Z AUTO 31003KT 5SM HZ CLR 17/M04 A3031 RMK AO2
  • 191715Z AUTO 26003KT 5SM HZ CLR 17/M01 A3031 RMK AO2
  • 191655Z AUTO 00000KT 5SM HZ CLR 17/M01 A3032 RMK AO2
  • 191635Z AUTO 22004KT 10SM CLR 16/M01 A3033 RMK AO2
  • 191615Z AUTO 24003KT 10SM CLR 16/M01 A3033 RMK AO2
  • 191555Z AUTO 00000KT 10SM CLR 15/M01 A3034 RMK AO2
  • 191535Z AUTO 26003KT 7SM CLR 14/00 A3035 RMK AO2

TAF N/A
No reported NOTAMs for that airfield.



MET'MAP, your aeronautical weather chart ! - Copyright ORBIFLY December 2007 - Disclaimer

ORBIFLY MET'MAP TEAM :

Programming & Development : Alexandra Zaïnal
Concept & Development : Baudouin d'Aumeries
Co-Development & Prog : Marc-Olivier Méhu
Technical & hardware support : Manuel Goepfert

Contact : metmap@orbifly.com




SOURCES & CREDITS :

   NOAA